createdAt,value
2019-05-16T00:00:46.627Z,52.61
2019-05-16T00:05:53.942Z,52.41
2019-05-16T00:10:51.269Z,51.90
2019-05-16T00:15:52.687Z,51.89
2019-05-16T00:20:58.510Z,51.69
2019-05-16T00:26:00.334Z,52.21
2019-05-16T00:31:04.795Z,52.10
2019-05-16T00:36:08.925Z,52.71
2019-05-16T00:41:09.951Z,53.20
2019-05-16T00:46:11.388Z,52.68
2019-05-16T00:51:12.973Z,52.86
2019-05-16T00:56:14.475Z,52.82
2019-05-16T01:01:16.052Z,53.16
2019-05-16T01:06:22.500Z,53.63
2019-05-16T01:11:20.964Z,53.16
2019-05-16T01:16:22.550Z,53.53
2019-05-16T01:21:24.097Z,54.27
2019-05-16T01:26:25.501Z,54.25
2019-05-16T01:31:27.960Z,54.94
2019-05-16T01:36:36.859Z,55.16
2019-05-16T01:41:33.136Z,56.18
2019-05-16T01:46:34.505Z,56.49
2019-05-16T01:51:38.024Z,55.97
2019-05-16T01:56:39.532Z,56.75
2019-05-16T02:01:41.034Z,57.14
2019-05-16T02:06:51.737Z,57.57
2019-05-16T02:11:48.023Z,57.02
2019-05-16T02:16:49.562Z,58.05
2019-05-16T02:21:51.066Z,56.90
2019-05-16T02:26:52.620Z,57.32
2019-05-16T02:31:54.182Z,58.57
2019-05-16T02:37:14.494Z,57.87
2019-05-16T02:42:01.106Z,57.84
2019-05-16T02:47:02.716Z,58.87
2019-05-16T02:52:04.138Z,59.96
2019-05-16T02:57:05.648Z,59.83
2019-05-16T03:02:07.134Z,59.60
2019-05-16T03:07:13.552Z,58.80
2019-05-16T03:12:12.188Z,58.39
2019-05-16T03:17:14.032Z,58.63
2019-05-16T03:22:16.860Z,58.27
2019-05-16T03:27:21.372Z,57.65
2019-05-16T03:32:24.334Z,57.87
2019-05-16T03:37:25.347Z,57.71
2019-05-16T03:42:26.914Z,57.81
2019-05-16T03:47:31.062Z,58.01
2019-05-16T03:52:31.625Z,58.24
2019-05-16T03:57:33.115Z,60.82
2019-05-16T04:02:34.557Z,61.76
2019-05-16T04:07:35.965Z,61.67
2019-05-16T04:12:37.361Z,62.93
2019-05-16T04:17:41.240Z,62.70
2019-05-16T04:22:42.249Z,62.57
2019-05-16T04:27:43.775Z,61.68
2019-05-16T04:32:45.206Z,61.13
2019-05-16T04:37:46.727Z,62.75
2019-05-16T04:42:51.048Z,61.89
2019-05-16T04:47:51.756Z,61.92
2019-05-16T04:52:53.249Z,62.84
2019-05-16T04:57:54.769Z,61.92
2019-05-16T05:02:56.355Z,61.26
2019-05-16T05:07:57.887Z,60.95
2019-05-16T05:13:01.529Z,62.42
2019-05-16T05:18:03.027Z,62.53
2019-05-16T05:23:04.531Z,62.41
2019-05-16T05:28:06.167Z,62.34
2019-05-16T05:33:10.030Z,61.06
2019-05-16T05:38:11.171Z,61.09
2019-05-16T05:43:12.718Z,61.16
2019-05-16T05:48:14.264Z,59.44
2019-05-16T05:53:15.897Z,59.65
2019-05-16T05:58:17.409Z,58.85
2019-05-16T06:03:22.476Z,58.46
2019-05-16T06:08:22.351Z,57.75
2019-05-16T06:13:23.871Z,57.17
2019-05-16T06:18:25.428Z,55.20
2019-05-16T06:23:26.867Z,53.59
2019-05-16T06:28:30.822Z,52.68
2019-05-16T06:33:31.911Z,52.40
2019-05-16T06:38:33.475Z,51.80
2019-05-16T06:43:35.174Z,51.07
2019-05-16T06:48:36.692Z,51.03
2019-05-16T06:53:40.316Z,50.63
2019-05-16T06:58:47.703Z,50.43
2019-05-16T07:03:45.129Z,49.16
2019-05-16T07:08:46.652Z,48.57
2019-05-16T07:13:51.760Z,49.25
2019-05-16T07:18:51.642Z,50.75
2019-05-16T07:23:53.902Z,50.81
2019-05-16T07:28:55.414Z,50.84
2019-05-16T07:33:56.924Z,50.24
2019-05-16T07:38:59.803Z,48.82
2019-05-16T07:44:01.295Z,48.00
2019-05-16T07:49:02.823Z,47.78
2019-05-16T07:54:04.331Z,48.05
2019-05-16T07:59:05.844Z,47.95
2019-05-16T08:04:07.408Z,48.47
2019-05-16T08:09:12.038Z,48.48
2019-05-16T08:14:12.479Z,44.21
2019-05-16T08:19:13.989Z,43.78
2019-05-16T08:24:15.568Z,42.42
2019-05-16T08:29:17.127Z,44.27
2019-05-16T08:34:20.777Z,41.57
2019-05-16T08:39:22.081Z,41.80
2019-05-16T08:44:23.574Z,39.77
2019-05-16T08:49:25.144Z,38.50
2019-05-16T08:54:26.594Z,38.30
2019-05-16T08:59:28.080Z,37.76
2019-05-16T09:09:42.115Z,34.81
2019-05-16T09:10:25.133Z,36.36
2019-05-16T09:14:39.082Z,35.74
2019-05-16T09:19:39.804Z,34.74
2019-05-16T09:24:41.431Z,33.12
2019-05-16T09:29:43.005Z,34.12
2019-05-16T09:34:47.654Z,33.68
2019-05-16T09:39:48.238Z,33.95
2019-05-16T09:44:49.799Z,32.90
2019-05-16T09:49:51.344Z,30.25
2019-05-16T09:54:52.873Z,31.42
2019-05-16T09:59:54.355Z,31.12
2019-05-16T10:04:57.972Z,30.86
2019-05-16T10:09:59.461Z,31.02
2019-05-16T10:15:00.973Z,31.25
2019-05-16T10:20:02.504Z,30.08
2019-05-16T10:25:04.645Z,31.13
2019-05-16T10:30:08.564Z,30.94
2019-05-16T10:35:09.715Z,32.40
2019-05-16T10:40:11.189Z,30.93
2019-05-16T10:45:13.258Z,29.02
2019-05-16T10:50:16.635Z,29.50
2019-05-16T10:55:18.210Z,27.58
2019-05-16T11:00:42.680Z,28.80
2019-05-16T11:05:30.517Z,29.30
2019-05-16T11:10:29.566Z,28.96
2019-05-16T11:15:30.035Z,29.75
2019-05-16T11:20:31.651Z,28.17
2019-05-16T11:25:33.128Z,29.50
2019-05-16T11:30:37.344Z,29.96
2019-05-16T11:35:38.380Z,30.75
2019-05-16T11:40:39.832Z,30.39
2019-05-16T11:45:41.378Z,30.40
2019-05-16T11:50:42.958Z,28.61
2019-05-16T11:55:54.159Z,30.30
2019-05-16T12:00:48.445Z,32.16
2019-05-16T12:05:50.215Z,30.41
2019-05-16T12:10:51.712Z,29.30
2019-05-16T12:15:53.312Z,29.87
2019-05-16T12:20:56.569Z,29.03
2019-05-16T12:26:00.161Z,30.98
2019-05-16T12:31:01.769Z,30.72
2019-05-16T12:36:07.076Z,29.31
2019-05-16T12:41:07.614Z,30.84
2019-05-16T12:46:09.035Z,31.31
2019-05-16T12:51:10.504Z,28.79
2019-05-16T12:56:11.987Z,31.00
2019-05-16T13:01:16.458Z,30.92
2019-05-16T13:06:17.306Z,29.87
2019-05-16T13:11:18.919Z,30.67
2019-05-16T13:16:20.318Z,31.84
2019-05-16T13:21:22.907Z,31.90
2019-05-16T13:26:24.814Z,33.17
2019-05-16T13:31:28.686Z,32.39
2019-05-16T13:36:29.868Z,32.79
2019-05-16T13:41:34.304Z,31.16
2019-05-16T13:46:37.048Z,32.78
2019-05-16T13:51:38.344Z,33.07
2019-05-16T13:56:39.792Z,32.64
2019-05-16T14:01:41.341Z,32.72
2019-05-16T14:06:42.754Z,31.85
2019-05-16T14:11:46.355Z,31.36
2019-05-16T14:16:47.895Z,32.77
2019-05-16T14:21:49.422Z,31.04
2019-05-16T14:26:50.930Z,32.04
2019-05-16T14:31:52.443Z,31.02
2019-05-16T14:36:54.110Z,31.60
2019-05-16T14:41:56.805Z,32.02
2019-05-16T14:46:58.469Z,30.42
2019-05-16T14:51:59.932Z,28.76
2019-05-16T14:57:01.979Z,28.32
2019-05-16T15:02:03.756Z,29.85
2019-05-16T15:07:06.965Z,30.16
2019-05-16T15:12:08.726Z,30.15
2019-05-16T15:17:10.304Z,29.51
2019-05-16T15:22:12.029Z,30.16
2019-05-16T15:27:13.463Z,28.82
2019-05-16T15:32:17.524Z,29.34
2019-05-16T15:37:18.562Z,29.36
2019-05-16T15:42:20.056Z,29.44
2019-05-16T15:47:21.488Z,29.66
2019-05-16T15:52:23.027Z,29.11
2019-05-16T15:57:26.783Z,30.89
2019-05-16T16:02:28.203Z,30.63
2019-05-16T16:07:30.551Z,29.77
2019-05-16T16:12:32.043Z,31.42
2019-05-16T16:17:33.465Z,32.70
2019-05-16T16:22:37.531Z,32.75
2019-05-16T16:27:38.116Z,32.29
2019-05-16T16:32:39.483Z,32.80
2019-05-16T16:37:40.757Z,32.97
2019-05-16T16:42:43.082Z,32.16
2019-05-16T16:47:46.806Z,34.09
2019-05-16T16:52:47.616Z,34.12
2019-05-16T16:57:48.885Z,34.94
2019-05-16T17:03:01.998Z,34.28
2019-05-16T17:07:53.505Z,34.91
2019-05-16T17:12:57.391Z,34.67
2019-05-16T17:17:58.050Z,35.56
2019-05-16T17:22:59.438Z,34.76
2019-05-16T17:28:00.871Z,35.18
2019-05-16T17:33:02.100Z,35.95
2019-05-16T17:38:03.681Z,34.90
2019-05-16T17:43:07.350Z,35.78
2019-05-16T17:48:08.700Z,36.43
2019-05-16T17:53:10.202Z,36.12
2019-05-16T17:58:11.835Z,36.00
2019-05-16T18:03:13.356Z,36.44
2019-05-16T18:08:14.876Z,37.14
2019-05-16T18:13:16.493Z,37.34
2019-05-16T18:18:18.130Z,38.67
2019-05-16T18:23:19.651Z,38.58
2019-05-16T18:28:21.266Z,39.97
2019-05-16T18:33:24.559Z,40.67
2019-05-16T18:38:26.580Z,41.50
2019-05-16T18:43:28.482Z,42.13
2019-05-16T18:48:29.979Z,42.84
2019-05-16T18:53:31.509Z,43.08
2019-05-16T18:58:33.051Z,43.30
2019-05-16T19:03:34.678Z,44.21
2019-05-16T19:08:36.503Z,43.53
2019-05-16T19:13:38.091Z,44.17
2019-05-16T19:18:39.657Z,44.63
2019-05-16T19:23:41.272Z,44.92
2019-05-16T19:28:42.920Z,45.69
2019-05-16T19:33:48.577Z,46.54
2019-05-16T19:38:48.419Z,47.57
2019-05-16T19:43:50.100Z,48.33
2019-05-16T19:48:51.641Z,50.04
2019-05-16T19:53:53.308Z,50.59
2019-05-16T19:58:56.773Z,49.96
2019-05-16T20:03:58.394Z,50.48
2019-05-16T20:09:01.002Z,50.62
2019-05-16T20:14:02.666Z,51.13
2019-05-16T20:19:04.207Z,52.70
2019-05-16T20:24:07.459Z,51.99
2019-05-16T20:29:09.240Z,52.42
2019-05-16T20:34:10.844Z,52.22
2019-05-16T20:39:12.241Z,52.85
2019-05-16T20:44:13.733Z,52.74
2019-05-16T20:49:16.777Z,52.54
2019-05-16T20:54:18.436Z,52.10
2019-05-16T20:59:19.973Z,52.58
2019-05-16T21:04:21.481Z,52.72
2019-05-16T21:09:26.179Z,54.05
2019-05-16T21:14:27.385Z,53.64
2019-05-16T21:19:28.792Z,54.74
2019-05-16T21:24:30.294Z,53.93
2019-05-16T21:29:31.721Z,54.24
2019-05-16T21:34:33.233Z,53.65
2019-05-16T21:39:36.814Z,53.96
2019-05-16T21:44:38.203Z,54.77
2019-05-16T21:49:39.712Z,54.90
2019-05-16T21:54:41.270Z,55.07
2019-05-16T21:59:42.866Z,54.57
2019-05-16T22:04:44.440Z,54.32
2019-05-16T22:09:46.631Z,55.06
2019-05-16T22:14:50.102Z,54.51
2019-05-16T22:19:51.609Z,54.93
2019-05-16T22:24:53.147Z,54.51
2019-05-16T22:29:56.617Z,54.54
2019-05-16T22:34:59.950Z,54.93
2019-05-16T22:40:01.585Z,55.59
2019-05-16T22:45:03.190Z,54.79
2019-05-16T22:50:07.323Z,56.09
2019-05-16T22:55:08.490Z,55.56
2019-05-16T23:00:10.026Z,55.54
2019-05-16T23:05:11.586Z,55.86
2019-05-16T23:10:13.383Z,55.76
2019-05-16T23:15:17.110Z,56.20
2019-05-16T23:20:18.526Z,56.43
2019-05-16T23:25:20.010Z,56.12
2019-05-16T23:30:21.557Z,59.90
2019-05-16T23:35:23.063Z,59.43
2019-05-16T23:40:24.584Z,58.52
2019-05-16T23:45:27.512Z,58.89
2019-05-16T23:50:29.186Z,58.89
2019-05-16T23:55:32.704Z,59.05
